createdAt,value
2022-10-13T00:00:41.610Z,76.96
2022-10-13T00:03:08.933Z,77.89
2022-10-13T00:05:35.993Z,78.42
2022-10-13T00:08:02.560Z,77.80
2022-10-13T00:10:30.455Z,79.11
2022-10-13T00:12:56.999Z,78.32
2022-10-13T00:15:25.890Z,77.66
2022-10-13T00:17:52.573Z,77.48
2022-10-13T00:20:19.339Z,78.02
2022-10-13T00:22:46.040Z,78.19
2022-10-13T00:25:12.597Z,77.73
2022-10-13T00:27:39.210Z,78.08
2022-10-13T00:30:06.361Z,78.16
2022-10-13T00:32:33.149Z,78.95
2022-10-13T00:34:59.807Z,78.03
2022-10-13T00:37:26.402Z,78.46
2022-10-13T00:39:53.120Z,79.28
2022-10-13T00:42:26.259Z,78.54
2022-10-13T00:45:11.955Z,78.63
2022-10-13T00:47:44.863Z,78.51
2022-10-13T00:50:16.167Z,78.23
2022-10-13T00:52:45.552Z,78.51
2022-10-13T00:55:16.746Z,79.42
2022-10-13T00:57:46.671Z,79.57
2022-10-13T01:00:13.694Z,79.05
2022-10-13T01:02:40.496Z,79.42
2022-10-13T01:05:07.918Z,79.34
2022-10-13T01:07:35.856Z,78.78
2022-10-13T01:10:03.459Z,78.79
2022-10-13T01:12:56.001Z,78.59
2022-10-13T01:15:37.817Z,77.92
2022-10-13T01:18:33.868Z,79.32
2022-10-13T01:21:39.316Z,78.81
2022-10-13T01:24:30.631Z,78.72
2022-10-13T01:27:05.140Z,78.77
2022-10-13T01:29:59.673Z,77.82
2022-10-13T01:32:45.473Z,77.94
2022-10-13T01:35:18.508Z,78.38
2022-10-13T01:37:53.693Z,78.03
2022-10-13T01:40:32.377Z,77.87
2022-10-13T01:43:03.488Z,78.88
2022-10-13T01:45:47.315Z,78.59
2022-10-13T01:48:16.767Z,78.22
2022-10-13T01:50:47.889Z,78.17
2022-10-13T01:53:18.009Z,78.47
2022-10-13T01:55:54.938Z,79.01
2022-10-13T01:58:23.199Z,78.45
2022-10-13T02:01:28.519Z,78.86
2022-10-13T02:04:17.856Z,78.48
2022-10-13T02:07:11.345Z,77.54
2022-10-13T02:09:57.313Z,77.39
2022-10-13T02:12:39.805Z,77.96
2022-10-13T02:15:12.045Z,78.17
2022-10-13T02:17:40.245Z,77.88
2022-10-13T02:20:08.325Z,78.11
2022-10-13T02:22:41.887Z,78.33
2022-10-13T02:25:09.125Z,78.52
2022-10-13T02:27:35.659Z,78.61
2022-10-13T02:30:02.266Z,77.90
2022-10-13T02:32:30.710Z,78.48
2022-10-13T02:34:57.499Z,78.09
2022-10-13T02:37:25.727Z,77.85
2022-10-13T02:39:52.808Z,78.37
2022-10-13T02:42:19.906Z,77.62
2022-10-13T02:44:46.590Z,78.16
2022-10-13T02:47:13.355Z,78.30
2022-10-13T02:49:39.911Z,77.61
2022-10-13T02:52:07.752Z,78.86
2022-10-13T02:54:41.798Z,78.04
2022-10-13T02:57:08.300Z,78.45
2022-10-13T02:59:34.917Z,78.61
2022-10-13T03:02:01.475Z,78.73
2022-10-13T03:04:28.198Z,77.60
2022-10-13T03:06:59.083Z,78.37
2022-10-13T03:09:25.763Z,77.73
2022-10-13T03:11:52.380Z,78.14
2022-10-13T03:14:19.122Z,78.16
2022-10-13T03:16:45.667Z,77.51
2022-10-13T03:19:12.997Z,77.40
2022-10-13T03:21:39.808Z,78.22
2022-10-13T03:24:06.646Z,77.52
2022-10-13T03:26:34.985Z,77.73
2022-10-13T03:29:01.665Z,77.52
2022-10-13T03:31:28.230Z,77.50
2022-10-13T03:34:02.076Z,77.75
2022-10-13T03:36:28.601Z,77.96
2022-10-13T03:38:55.145Z,78.32
2022-10-13T03:41:22.503Z,78.12
2022-10-13T03:43:51.908Z,77.80
2022-10-13T03:46:19.141Z,77.12
2022-10-13T03:48:47.717Z,77.51
2022-10-13T03:51:17.266Z,77.96
2022-10-13T03:53:49.504Z,78.24
2022-10-13T03:56:19.682Z,77.81
2022-10-13T03:58:56.606Z,78.70
2022-10-13T04:01:25.665Z,78.18
2022-10-13T04:03:53.970Z,78.34
2022-10-13T04:06:20.725Z,79.06
2022-10-13T04:08:47.334Z,78.27
2022-10-13T04:11:15.345Z,78.10
2022-10-13T04:13:43.390Z,78.24
2022-10-13T04:16:21.407Z,78.61
2022-10-13T04:18:53.294Z,78.50
2022-10-13T04:21:20.262Z,79.13
2022-10-13T04:23:47.099Z,79.15
2022-10-13T04:26:20.351Z,79.09
2022-10-13T04:28:48.625Z,79.71
2022-10-13T04:31:15.230Z,80.16
2022-10-13T04:33:41.794Z,79.65
2022-10-13T04:36:11.556Z,79.88
2022-10-13T04:38:38.690Z,81.19
2022-10-13T04:41:06.542Z,81.00
2022-10-13T04:43:33.800Z,80.86
2022-10-13T04:46:13.956Z,81.00
2022-10-13T04:48:41.434Z,81.13
2022-10-13T04:51:13.676Z,82.43
2022-10-13T04:53:44.218Z,81.87
2022-10-13T04:56:15.860Z,82.64
2022-10-13T04:58:44.243Z,83.11
2022-10-13T05:01:21.538Z,82.98
2022-10-13T05:03:53.327Z,82.88
2022-10-13T05:06:23.235Z,82.63
2022-10-13T05:08:56.066Z,82.79
2022-10-13T05:11:24.484Z,82.32
2022-10-13T05:13:51.227Z,82.15
2022-10-13T05:16:19.185Z,82.40
2022-10-13T05:18:45.828Z,82.23
2022-10-13T05:21:27.646Z,82.76
2022-10-13T05:23:56.046Z,83.10
2022-10-13T05:26:28.984Z,83.46
2022-10-13T05:29:00.157Z,83.04
2022-10-13T05:31:31.767Z,83.81
2022-10-13T05:33:59.826Z,82.57
2022-10-13T05:36:34.660Z,82.54
2022-10-13T05:39:04.557Z,83.89
2022-10-13T05:41:31.089Z,82.37
2022-10-13T05:44:01.519Z,83.58
2022-10-13T05:46:28.465Z,82.65
2022-10-13T05:48:55.151Z,82.55
2022-10-13T05:51:26.795Z,83.58
2022-10-13T05:54:00.904Z,82.53
2022-10-13T05:56:32.568Z,82.96
2022-10-13T05:59:02.209Z,83.68
2022-10-13T06:01:32.803Z,82.64
2022-10-13T06:04:04.686Z,83.46
2022-10-13T06:06:31.793Z,82.76
2022-10-13T06:08:59.918Z,82.76
2022-10-13T06:11:32.328Z,83.14
2022-10-13T06:13:58.883Z,83.83
2022-10-13T06:16:25.703Z,83.20
2022-10-13T06:18:52.785Z,84.10
2022-10-13T06:21:19.295Z,83.70
2022-10-13T06:23:45.963Z,83.55
2022-10-13T06:26:12.498Z,84.19
2022-10-13T06:28:39.150Z,83.15
2022-10-13T06:31:06.634Z,83.74
2022-10-13T06:33:33.698Z,83.59
2022-10-13T06:36:04.965Z,83.40
2022-10-13T06:38:32.739Z,83.19
2022-10-13T06:41:04.671Z,83.29
2022-10-13T06:43:38.922Z,82.91
2022-10-13T06:46:09.937Z,84.10
2022-10-13T06:48:36.674Z,83.63
2022-10-13T06:51:08.273Z,84.10
2022-10-13T06:53:35.928Z,84.87
2022-10-13T06:56:05.186Z,83.56
2022-10-13T06:58:31.914Z,84.55
2022-10-13T07:00:58.445Z,84.54
2022-10-13T07:03:26.019Z,84.76
2022-10-13T07:05:53.298Z,83.72
2022-10-13T07:08:20.726Z,84.82
2022-10-13T07:10:47.414Z,84.34
2022-10-13T07:13:13.995Z,84.50
2022-10-13T07:15:40.964Z,84.85
2022-10-13T07:18:07.949Z,85.00
2022-10-13T07:20:34.963Z,84.64
2022-10-13T07:23:02.029Z,85.89
2022-10-13T07:25:28.699Z,85.23
2022-10-13T07:27:55.521Z,84.17
2022-10-13T07:30:22.461Z,85.20
2022-10-13T07:32:49.121Z,85.07
2022-10-13T07:35:15.906Z,85.86
2022-10-13T07:37:42.412Z,85.82
2022-10-13T07:40:09.546Z,84.58
2022-10-13T07:42:36.023Z,84.51
2022-10-13T07:45:02.894Z,85.32
2022-10-13T07:47:30.361Z,85.91
2022-10-13T07:49:56.928Z,85.54
2022-10-13T07:52:23.492Z,84.61
2022-10-13T07:54:50.626Z,85.97
2022-10-13T07:57:17.443Z,85.06
2022-10-13T07:59:44.147Z,85.01
2022-10-13T08:02:12.983Z,85.48
2022-10-13T08:04:39.713Z,85.60
2022-10-13T08:07:06.664Z,85.49
2022-10-13T08:09:33.394Z,86.07
2022-10-13T08:12:01.707Z,85.40
2022-10-13T08:14:29.432Z,85.57
2022-10-13T08:16:57.130Z,85.53
2022-10-13T08:19:26.351Z,85.82
2022-10-13T08:21:58.311Z,85.59
2022-10-13T08:24:26.372Z,86.11
2022-10-13T08:26:53.278Z,85.60
2022-10-13T08:29:22.539Z,86.14
2022-10-13T08:31:50.579Z,86.51
2022-10-13T08:34:17.254Z,85.70
2022-10-13T08:36:43.875Z,85.50
2022-10-13T08:39:10.996Z,86.06
2022-10-13T08:41:41.006Z,86.13
2022-10-13T08:47:27.253Z,86.08
2022-10-13T08:49:59.998Z,86.21
2022-10-13T08:52:29.505Z,85.76
2022-10-13T08:54:57.165Z,85.89
2022-10-13T08:57:24.285Z,85.73
2022-10-13T08:59:52.422Z,85.59
2022-10-13T09:02:26.440Z,85.27
2022-10-13T09:04:53.762Z,84.75
2022-10-13T09:07:40.636Z,85.31
2022-10-13T09:10:09.531Z,85.12
2022-10-13T09:12:36.119Z,84.42
2022-10-13T09:15:09.848Z,84.34
2022-10-13T09:17:39.455Z,83.58
2022-10-13T09:20:22.684Z,83.53
2022-10-13T09:23:19.086Z,83.34
2022-10-13T09:25:51.218Z,83.51
2022-10-13T09:28:25.739Z,83.08
2022-10-13T09:31:23.149Z,82.44
2022-10-13T09:34:30.264Z,82.87
2022-10-13T09:37:06.007Z,82.86
2022-10-13T09:39:34.110Z,82.32
2022-10-13T09:42:33.194Z,81.69
2022-10-13T09:45:13.280Z,80.69
2022-10-13T09:47:40.315Z,80.95
2022-10-13T09:50:18.797Z,80.09
2022-10-13T09:52:47.544Z,79.95
2022-10-13T09:55:35.948Z,79.75
2022-10-13T09:58:28.320Z,80.03
2022-10-13T10:00:57.533Z,80.35
2022-10-13T10:03:37.328Z,79.21
2022-10-13T10:06:07.670Z,78.68
2022-10-13T10:09:03.176Z,77.47
2022-10-13T10:11:35.251Z,78.00
2022-10-13T10:14:19.428Z,76.58
2022-10-13T10:16:57.266Z,77.53
2022-10-13T10:20:02.155Z,77.93
2022-10-13T10:22:43.658Z,76.83
2022-10-13T10:25:16.849Z,75.84
2022-10-13T10:27:59.966Z,75.46
2022-10-13T10:30:31.185Z,75.39
2022-10-13T10:33:13.491Z,74.54
2022-10-13T10:35:50.352Z,76.20
2022-10-13T10:38:43.255Z,76.20
2022-10-13T10:41:37.735Z,75.71
2022-10-13T10:44:14.836Z,75.69
2022-10-13T10:46:48.642Z,74.35
2022-10-13T10:49:36.605Z,74.74
2022-10-13T10:52:08.429Z,76.00
2022-10-13T10:54:55.930Z,74.29
2022-10-13T10:58:04.246Z,75.10
2022-10-13T11:00:41.514Z,75.35
2022-10-13T11:03:35.022Z,75.07
2022-10-13T11:06:20.959Z,74.26
2022-10-13T11:08:49.271Z,75.91
2022-10-13T11:11:26.654Z,75.96
2022-10-13T11:13:54.502Z,75.46
2022-10-13T11:17:10.709Z,74.53
2022-10-13T11:19:40.619Z,75.43
2022-10-13T11:22:07.057Z,74.07
2022-10-13T11:24:37.338Z,74.30
2022-10-13T11:27:11.445Z,73.91
2022-10-13T11:29:47.223Z,74.16
2022-10-13T11:32:26.086Z,73.44
2022-10-13T11:35:18.506Z,73.03
2022-10-13T11:38:15.291Z,72.30
2022-10-13T11:41:19.641Z,73.24
2022-10-13T11:43:57.735Z,74.09
2022-10-13T11:46:46.275Z,73.81
2022-10-13T11:49:24.209Z,74.14
2022-10-13T11:52:06.621Z,73.51
2022-10-13T11:54:40.352Z,73.45
2022-10-13T11:57:27.305Z,72.02
2022-10-13T11:59:56.068Z,71.98
2022-10-13T12:02:28.477Z,72.18
2022-10-13T12:05:23.605Z,70.08
2022-10-13T12:07:53.099Z,70.81
2022-10-13T12:10:28.184Z,71.80
2022-10-13T12:12:54.729Z,71.63
2022-10-13T12:15:33.992Z,70.88
2022-10-13T12:18:01.257Z,71.52
2022-10-13T12:20:32.629Z,72.08
2022-10-13T12:25:29.589Z,71.18
2022-10-13T12:28:00.760Z,71.37
2022-10-13T12:30:36.949Z,72.35
2022-10-13T12:33:17.585Z,71.10
2022-10-13T12:35:44.124Z,72.39
2022-10-13T12:38:19.759Z,69.92
2022-10-13T12:40:49.809Z,71.97
2022-10-13T12:43:20.233Z,70.60
2022-10-13T12:45:48.792Z,72.32
2022-10-13T12:48:35.242Z,70.83
2022-10-13T12:51:18.872Z,71.35
2022-10-13T12:53:46.521Z,70.29
2022-10-13T12:56:27.619Z,70.49
2022-10-13T12:58:55.138Z,71.63
2022-10-13T13:01:31.322Z,70.34
2022-10-13T13:04:15.044Z,70.26
2022-10-13T13:06:52.864Z,71.18
2022-10-13T13:09:24.294Z,71.83
2022-10-13T13:12:12.511Z,71.77
2022-10-13T13:14:43.972Z,70.57
2022-10-13T13:17:17.553Z,71.50
2022-10-13T13:19:55.514Z,70.93
2022-10-13T13:22:22.444Z,70.95
2022-10-13T13:24:52.432Z,70.46
2022-10-13T13:27:24.320Z,70.86
2022-10-13T13:29:51.389Z,71.05
2022-10-13T13:32:20.473Z,71.56
2022-10-13T13:34:47.207Z,70.62
2022-10-13T13:37:31.531Z,70.36
2022-10-13T13:39:58.729Z,70.51
2022-10-13T13:42:27.208Z,70.70
2022-10-13T13:44:53.852Z,71.87
2022-10-13T13:47:22.936Z,70.81
2022-10-13T13:49:51.965Z,70.88
2022-10-13T13:52:19.293Z,71.23
2022-10-13T13:54:46.276Z,70.87
2022-10-13T13:57:15.978Z,70.30
2022-10-13T13:59:43.319Z,69.79
2022-10-13T14:02:20.159Z,70.51
2022-10-13T14:04:47.390Z,70.34
2022-10-13T14:07:14.235Z,71.05
2022-10-13T14:09:41.571Z,70.81
2022-10-13T14:12:09.858Z,70.86
2022-10-13T14:14:36.419Z,70.42
2022-10-13T14:17:04.277Z,69.96
2022-10-13T14:19:32.224Z,71.13
2022-10-13T14:21:59.579Z,70.19
2022-10-13T14:24:26.106Z,69.86
2022-10-13T14:26:52.664Z,70.87
2022-10-13T14:29:19.252Z,70.23
2022-10-13T14:31:45.902Z,71.53
2022-10-13T14:34:12.410Z,70.39
2022-10-13T14:36:40.048Z,70.38
2022-10-13T14:39:06.617Z,71.03
2022-10-13T14:41:33.320Z,71.04
2022-10-13T14:43:59.872Z,71.18
2022-10-13T14:46:26.470Z,71.05
2022-10-13T14:48:54.847Z,70.26
2022-10-13T14:51:21.391Z,70.41
2022-10-13T14:53:47.968Z,70.75
2022-10-13T14:56:18.793Z,71.49
2022-10-13T14:58:50.798Z,70.43
2022-10-13T15:01:18.257Z,70.43
2022-10-13T15:03:45.169Z,71.73
2022-10-13T15:06:20.766Z,70.53
2022-10-13T15:08:48.655Z,70.72
2022-10-13T15:11:16.140Z,69.85
2022-10-13T15:13:42.786Z,70.30
2022-10-13T15:16:16.894Z,70.37
2022-10-13T15:18:43.620Z,71.33
2022-10-13T15:21:10.234Z,71.10
2022-10-13T15:23:36.873Z,71.05
2022-10-13T15:26:04.475Z,72.01
2022-10-13T15:28:36.158Z,70.67
2022-10-13T15:31:03.005Z,71.08
2022-10-13T15:33:29.772Z,71.02
2022-10-13T15:35:56.923Z,71.69
2022-10-13T15:38:23.973Z,71.33
2022-10-13T15:40:51.031Z,72.15
2022-10-13T15:43:18.066Z,71.46
2022-10-13T15:45:55.540Z,71.58
2022-10-13T15:48:22.433Z,71.27
2022-10-13T15:50:49.242Z,72.03
2022-10-13T15:53:15.925Z,72.10
2022-10-13T15:55:42.819Z,72.10
2022-10-13T15:58:13.679Z,72.03
2022-10-13T16:00:41.874Z,72.03
2022-10-13T16:03:15.341Z,72.58
2022-10-13T16:05:43.658Z,73.03
2022-10-13T16:08:10.580Z,73.00
2022-10-13T16:10:43.589Z,72.87
2022-10-13T16:13:14.469Z,72.59
2022-10-13T16:15:42.337Z,72.88
2022-10-13T16:18:09.304Z,73.37
2022-10-13T16:20:37.891Z,74.17
2022-10-13T16:23:05.093Z,73.60
2022-10-13T16:25:32.067Z,72.97
2022-10-13T16:28:01.867Z,74.15
2022-10-13T16:30:30.294Z,74.33
2022-10-13T16:32:57.777Z,73.42
2022-10-13T16:35:24.411Z,74.32
2022-10-13T16:37:50.976Z,74.52
2022-10-13T16:40:17.539Z,74.21
2022-10-13T16:42:44.958Z,74.94
2022-10-13T16:45:11.746Z,74.71
2022-10-13T16:47:38.390Z,75.23
2022-10-13T16:50:09.405Z,75.34
2022-10-13T16:52:37.349Z,74.44
2022-10-13T16:55:05.586Z,75.42
2022-10-13T16:57:32.713Z,74.76
2022-10-13T16:59:59.465Z,74.60
2022-10-13T17:02:28.580Z,75.30
2022-10-13T17:04:55.235Z,74.86
2022-10-13T17:07:22.099Z,75.19
2022-10-13T17:09:50.023Z,75.50
2022-10-13T17:12:16.640Z,76.11
2022-10-13T17:14:43.413Z,75.66
2022-10-13T17:17:10.211Z,75.89
2022-10-13T17:19:37.030Z,75.18
2022-10-13T17:22:03.723Z,75.89
2022-10-13T17:24:30.966Z,75.71
2022-10-13T17:26:57.597Z,76.17
2022-10-13T17:29:24.175Z,75.98
2022-10-13T17:31:53.337Z,75.86
2022-10-13T17:34:21.822Z,75.99
2022-10-13T17:36:51.197Z,76.27
2022-10-13T17:39:18.024Z,76.52
2022-10-13T17:41:44.762Z,76.22
2022-10-13T17:44:11.761Z,76.08
2022-10-13T17:46:39.780Z,75.95
2022-10-13T17:49:09.998Z,76.06
2022-10-13T17:51:36.762Z,76.01
2022-10-13T17:54:03.977Z,75.96
2022-10-13T17:56:30.719Z,76.15
2022-10-13T17:58:57.609Z,76.62
2022-10-13T18:01:33.975Z,76.89
2022-10-13T18:04:05.667Z,75.65
2022-10-13T18:06:38.578Z,75.92
2022-10-13T18:09:17.381Z,76.05
2022-10-13T18:11:49.830Z,75.86
2022-10-13T18:14:19.118Z,76.04
2022-10-13T18:16:49.276Z,76.99
2022-10-13T18:19:16.395Z,76.66
2022-10-13T18:21:43.263Z,76.87
2022-10-13T18:24:11.739Z,76.30
2022-10-13T18:26:38.594Z,77.50
2022-10-13T18:29:07.451Z,77.51
2022-10-13T18:31:37.070Z,77.21
2022-10-13T18:34:06.764Z,76.71
2022-10-13T18:36:42.611Z,76.49
2022-10-13T18:39:20.699Z,76.99
2022-10-13T18:41:50.634Z,76.29
2022-10-13T18:44:20.204Z,77.13
2022-10-13T18:46:52.670Z,76.34
2022-10-13T18:49:23.116Z,76.96
2022-10-13T18:51:51.526Z,76.73
2022-10-13T18:54:18.150Z,77.51
2022-10-13T18:57:01.898Z,77.81
2022-10-13T18:59:31.411Z,77.40
2022-10-13T19:02:06.006Z,76.84
2022-10-13T19:04:32.822Z,77.21
2022-10-13T19:07:05.849Z,77.46
2022-10-13T19:09:32.840Z,77.20
2022-10-13T19:11:59.537Z,77.25
2022-10-13T19:14:27.474Z,77.93
2022-10-13T19:17:00.854Z,76.87
2022-10-13T19:19:29.544Z,77.16
2022-10-13T19:21:57.712Z,77.53
2022-10-13T19:24:25.618Z,77.43
2022-10-13T19:26:52.664Z,77.59
2022-10-13T19:29:19.432Z,78.00
2022-10-13T19:31:46.230Z,78.00
2022-10-13T19:34:13.730Z,78.53
2022-10-13T19:36:43.657Z,78.11
2022-10-13T19:39:22.206Z,78.57
2022-10-13T19:41:51.629Z,78.80
2022-10-13T19:44:24.257Z,78.17
2022-10-13T19:46:58.700Z,78.02
2022-10-13T19:49:36.027Z,78.02
2022-10-13T19:52:14.651Z,78.62
2022-10-13T19:54:49.680Z,78.84
2022-10-13T19:57:30.638Z,78.60
2022-10-13T20:00:03.420Z,78.92
2022-10-13T20:02:45.210Z,78.11
2022-10-13T20:05:14.490Z,78.49
2022-10-13T20:07:45.687Z,78.02
2022-10-13T20:10:22.575Z,78.37
2022-10-13T20:12:52.345Z,78.37
2022-10-13T20:15:20.536Z,78.43
2022-10-13T20:17:53.448Z,78.94
2022-10-13T20:20:22.505Z,78.60
2022-10-13T20:22:52.618Z,78.64
2022-10-13T20:25:20.104Z,78.39
2022-10-13T20:28:00.717Z,79.17
2022-10-13T20:30:30.634Z,79.21
2022-10-13T20:32:57.589Z,78.60
2022-10-13T20:35:27.669Z,79.40
2022-10-13T20:37:57.665Z,79.45
2022-10-13T20:40:27.851Z,78.78
2022-10-13T20:43:05.874Z,78.48
2022-10-13T20:46:38.658Z,79.41
2022-10-13T20:49:09.880Z,79.49
2022-10-13T20:51:46.581Z,78.92
2022-10-13T21:00:28.791Z,80.19
2022-10-13T21:03:08.977Z,80.63
2022-10-13T21:06:01.837Z,80.18
2022-10-13T21:09:30.084Z,80.32
2022-10-13T21:11:51.214Z,80.92
2022-10-13T21:14:21.627Z,82.17
2022-10-13T21:16:48.396Z,81.55
2022-10-13T21:19:36.663Z,80.71
2022-10-13T21:22:17.903Z,80.50
2022-10-13T21:27:38.292Z,80.62
2022-10-13T21:30:15.780Z,80.95
2022-10-13T21:32:42.382Z,80.61
2022-10-13T21:35:09.689Z,80.56
2022-10-13T21:37:37.739Z,80.96
2022-10-13T21:40:09.360Z,80.55
2022-10-13T21:42:36.076Z,80.62
2022-10-13T21:45:03.297Z,80.86
2022-10-13T21:47:34.806Z,80.36
2022-10-13T21:50:08.541Z,80.24
2022-10-13T21:52:39.025Z,80.57
2022-10-13T21:55:10.019Z,81.30
2022-10-13T21:57:37.134Z,82.19
2022-10-13T22:00:05.776Z,82.24
2022-10-13T22:02:39.379Z,81.39
2022-10-13T22:05:10.563Z,82.32
2022-10-13T22:07:37.361Z,82.19
2022-10-13T22:10:04.514Z,83.01
2022-10-13T22:12:31.378Z,82.99
2022-10-13T22:14:58.091Z,82.32
2022-10-13T22:17:24.934Z,83.20
2022-10-13T22:19:51.652Z,83.57
2022-10-13T22:22:21.404Z,83.99
2022-10-13T22:24:50.632Z,84.47
2022-10-13T22:27:17.327Z,85.07
2022-10-13T22:29:43.866Z,85.59
2022-10-13T22:32:10.786Z,85.27
2022-10-13T22:34:37.457Z,85.55
2022-10-13T22:37:04.209Z,85.53
2022-10-13T22:39:31.200Z,85.89
2022-10-13T22:42:08.171Z,85.50
2022-10-13T22:44:35.410Z,86.02
2022-10-13T22:47:03.521Z,87.04
2022-10-13T22:49:37.327Z,86.23
2022-10-13T22:52:04.333Z,86.58
2022-10-13T22:54:32.495Z,87.08
2022-10-13T22:56:59.062Z,86.74
2022-10-13T22:59:27.368Z,86.52
2022-10-13T23:01:53.958Z,86.63
2022-10-13T23:04:20.542Z,86.54
2022-10-13T23:06:47.340Z,86.37
2022-10-13T23:09:14.357Z,86.52
2022-10-13T23:11:44.023Z,86.81
2022-10-13T23:14:17.862Z,87.09
2022-10-13T23:16:45.344Z,87.01
2022-10-13T23:19:11.891Z,86.46
2022-10-13T23:21:38.481Z,86.89
2022-10-13T23:24:06.742Z,87.38
2022-10-13T23:26:34.707Z,87.00
2022-10-13T23:29:01.729Z,87.03
2022-10-13T23:31:28.881Z,87.02
2022-10-13T23:33:55.930Z,86.71
2022-10-13T23:36:25.303Z,87.01
2022-10-13T23:39:06.738Z,87.38
2022-10-13T23:41:34.171Z,87.27
2022-10-13T23:44:00.964Z,87.78
2022-10-13T23:46:27.811Z,86.94
2022-10-13T23:48:54.583Z,87.57
2022-10-13T23:51:24.120Z,86.69
2022-10-13T23:53:51.396Z,86.95
2022-10-13T23:56:18.774Z,86.61
2022-10-13T23:58:45.606Z,87.40
